createdAt,value
2024-02-13T08:12:52.579Z,8.70
2024-02-13T08:19:36.218Z,10.97
2024-02-13T09:27:04.240Z,4.77
2024-02-13T09:29:13.955Z,8.43
2024-02-13T09:42:32.586Z,9.87
2024-02-13T09:48:42.536Z,11.40
2024-02-13T10:17:19.589Z,8.93
2024-02-13T10:24:17.252Z,11.17
2024-02-13T10:28:10.795Z,10.37
2024-02-13T10:35:57.784Z,8.53
2024-02-13T10:48:36.876Z,8.37
2024-02-13T10:55:26.121Z,8.13
2024-02-13T11:35:20.542Z,11.97
2024-02-13T11:41:57.779Z,5.93
2024-02-13T11:48:18.806Z,9.00
2024-02-13T12:01:13.514Z,9.07
2024-02-13T12:07:26.180Z,12.00
2024-02-13T12:22:46.528Z,12.47
2024-02-13T12:33:31.581Z,10.33
2024-02-13T12:53:29.697Z,7.90
2024-02-13T12:59:27.809Z,6.70
2024-02-13T13:05:43.997Z,9.33
2024-02-13T13:12:37.256Z,6.03
2024-02-13T13:19:21.564Z,9.67
2024-02-13T13:32:22.957Z,5.87
2024-02-13T13:50:27.461Z,5.20
2024-02-13T13:58:26.682Z,6.17
2024-02-13T14:05:29.840Z,6.40
2024-02-13T14:11:38.156Z,6.83
2024-02-13T14:24:23.015Z,4.50
2024-02-13T14:30:45.513Z,7.23
2024-02-13T14:36:50.054Z,8.63
2024-02-13T14:49:18.375Z,7.53
2024-02-13T14:55:52.712Z,7.83
2024-02-13T15:01:48.654Z,6.20
2024-02-13T15:08:05.376Z,8.50
2024-02-13T15:14:13.617Z,8.33
2024-02-13T15:20:41.333Z,6.73
2024-02-13T15:27:22.069Z,7.77
2024-02-13T15:33:36.462Z,7.97
2024-02-13T15:40:24.636Z,9.07
2024-02-13T15:46:55.592Z,7.53
2024-02-13T15:53:08.411Z,8.63
2024-02-13T16:05:59.481Z,9.10
2024-02-13T16:12:24.704Z,7.30
2024-02-13T16:19:02.668Z,10.33
2024-02-13T16:25:23.408Z,12.33
2024-02-13T16:32:16.701Z,10.47
2024-02-13T16:38:35.337Z,12.10
2024-02-13T16:47:56.940Z,13.17
2024-02-13T16:51:22.380Z,14.17
2024-02-13T17:11:21.314Z,15.97
2024-02-13T17:17:33.845Z,12.00
2024-02-13T17:28:43.887Z,5.40
2024-02-13T17:30:26.225Z,10.10
2024-02-13T17:36:28.251Z,10.23
2024-02-13T17:43:15.414Z,17.73
2024-02-13T17:56:27.395Z,9.67
2024-02-13T18:02:45.797Z,8.37
2024-02-13T18:09:24.319Z,8.03
2024-02-13T18:22:04.505Z,8.37
2024-02-13T18:31:47.996Z,8.93
2024-02-13T18:36:23.558Z,8.57
2024-02-13T18:42:48.618Z,9.60
2024-02-13T18:50:34.093Z,8.47
2024-02-13T19:31:24.331Z,7.60
2024-02-13T19:40:25.980Z,7.97
2024-02-13T19:51:41.049Z,6.90
2024-02-13T19:57:45.885Z,5.03
2024-02-13T20:04:54.233Z,6.67
2024-02-13T20:10:54.256Z,5.03
2024-02-13T20:17:26.006Z,4.90
2024-02-13T20:30:39.451Z,4.80
2024-02-13T20:37:09.341Z,4.20
2024-02-13T20:49:49.231Z,3.97
2024-02-13T20:56:01.884Z,4.90
2024-02-13T21:08:51.213Z,3.40
2024-02-13T21:14:59.699Z,4.63
2024-02-13T21:22:35.363Z,3.80
2024-02-13T21:28:00.894Z,3.80
2024-02-13T21:35:32.292Z,4.23
2024-02-13T21:41:06.959Z,4.57
2024-02-13T21:47:47.099Z,3.90
2024-02-13T21:54:38.502Z,4.97
2024-02-13T22:00:23.835Z,3.43
2024-02-13T22:06:38.427Z,3.97
2024-02-13T22:12:56.740Z,2.80
2024-02-13T22:19:08.052Z,3.43
2024-02-13T22:25:43.967Z,3.70
2024-02-13T22:32:09.488Z,3.77
2024-02-13T22:38:13.975Z,2.77
2024-02-13T22:44:33.476Z,3.90
2024-02-13T22:50:43.080Z,5.00
2024-02-13T22:59:27.934Z,4.07
2024-02-13T23:03:27.166Z,3.57
2024-02-13T23:09:59.350Z,3.30
2024-02-13T23:16:43.080Z,5.97
2024-02-13T23:22:56.862Z,5.03
2024-02-13T23:29:55.033Z,3.40
2024-02-13T23:36:16.735Z,3.83
2024-02-13T23:42:29.642Z,4.97
2024-02-13T23:48:42.971Z,3.97
2024-02-13T23:55:17.441Z,3.60
